createdAt,value
2019-01-21T00:00:07.454Z,35.47
2019-01-21T00:02:38.109Z,38.97
2019-01-21T00:05:08.820Z,33.00
2019-01-21T00:07:39.459Z,35.43
2019-01-21T00:10:10.485Z,33.47
2019-01-21T00:12:41.177Z,37.20
2019-01-21T00:15:12.014Z,38.53
2019-01-21T00:17:42.884Z,40.57
2019-01-21T00:20:14.258Z,40.37
2019-01-21T00:22:44.898Z,36.33
2019-01-21T00:25:15.623Z,40.77
2019-01-21T00:27:46.228Z,34.20
2019-01-21T00:30:17.601Z,34.00
2019-01-21T00:32:48.739Z,37.13
2019-01-21T00:35:19.429Z,37.47
2019-01-21T00:37:51.264Z,38.07
2019-01-21T00:40:22.008Z,36.73
2019-01-21T00:42:53.779Z,38.20
2019-01-21T00:45:24.768Z,38.33
2019-01-21T00:47:55.578Z,37.90
2019-01-21T00:50:26.249Z,41.03
2019-01-21T00:52:56.973Z,40.80
2019-01-21T00:55:27.624Z,41.33
2019-01-21T00:57:58.274Z,41.07
2019-01-21T01:00:29.223Z,39.97
2019-01-21T01:02:59.929Z,35.97
2019-01-21T01:05:30.604Z,38.03
2019-01-21T01:08:01.608Z,37.90
2019-01-21T01:10:32.298Z,37.00
2019-01-21T01:13:02.963Z,39.63
2019-01-21T01:15:33.543Z,38.50
2019-01-21T01:18:04.254Z,39.07
2019-01-21T01:20:34.984Z,38.73
2019-01-21T01:23:05.599Z,37.87
2019-01-21T01:25:36.598Z,36.03
2019-01-21T01:28:07.209Z,35.83
2019-01-21T01:30:38.008Z,36.50
2019-01-21T01:33:08.744Z,37.43
2019-01-21T01:35:39.484Z,37.17
2019-01-21T01:38:10.124Z,36.63
2019-01-21T01:40:41.006Z,36.70
2019-01-21T01:43:11.573Z,37.73
2019-01-21T01:45:42.184Z,36.33
2019-01-21T01:48:13.114Z,36.87
2019-01-21T01:50:44.191Z,29.10
2019-01-21T01:53:16.243Z,31.70
2019-01-21T01:55:47.364Z,32.07
2019-01-21T01:58:18.183Z,30.93
2019-01-21T02:00:48.904Z,32.03
2019-01-21T02:03:19.894Z,36.33
2019-01-21T02:05:50.483Z,38.43
2019-01-21T02:08:21.343Z,38.13
2019-01-21T02:10:52.093Z,39.50
2019-01-21T02:13:22.899Z,37.00
2019-01-21T02:15:54.039Z,39.00
2019-01-21T02:18:24.739Z,37.37
2019-01-21T02:20:58.959Z,38.57
2019-01-21T02:23:34.274Z,39.87
2019-01-21T02:26:08.804Z,28.33
2019-01-21T02:29:00.449Z,33.97
2019-01-21T02:32:20.540Z,36.30
2019-01-21T02:35:16.085Z,31.57
2019-01-21T02:38:35.954Z,31.63
2019-01-21T02:41:18.410Z,37.57
2019-01-21T02:44:42.389Z,39.40
2019-01-21T02:47:43.130Z,30.43
2019-01-21T02:50:53.934Z,33.77
2019-01-21T02:54:19.699Z,34.87
2019-01-21T02:57:49.108Z,38.67
2019-01-21T03:01:00.695Z,38.63
2019-01-21T03:04:05.149Z,37.93
2019-01-21T03:07:21.199Z,37.93
2019-01-21T03:10:09.139Z,50.80
2019-01-21T03:13:32.685Z,40.43
2019-01-21T03:16:33.994Z,40.80
2019-01-21T03:19:51.239Z,41.60
2019-01-21T03:23:08.539Z,43.00
2019-01-21T03:26:03.193Z,36.17
2019-01-21T03:29:04.084Z,40.13
2019-01-21T03:32:15.536Z,37.43
2019-01-21T03:35:38.048Z,48.43
2019-01-21T03:38:42.997Z,48.90
2019-01-21T03:41:59.960Z,46.50
2019-01-21T03:45:12.946Z,36.10
2019-01-21T03:48:16.259Z,37.90
2019-01-21T03:51:23.754Z,35.67
2019-01-21T03:54:11.251Z,35.53
2019-01-21T03:57:00.138Z,35.67
2019-01-21T03:59:43.922Z,37.00
2019-01-21T04:02:41.150Z,33.53
2019-01-21T04:05:40.099Z,32.77
2019-01-21T04:09:12.414Z,31.50
2019-01-21T04:12:25.879Z,30.73
2019-01-21T04:15:26.560Z,34.77
2019-01-21T04:18:58.824Z,35.40
2019-01-21T04:22:07.129Z,32.20
2019-01-21T04:25:04.909Z,34.20
2019-01-21T04:28:27.494Z,32.23
2019-01-21T04:31:39.794Z,35.27
2019-01-21T04:34:47.580Z,36.57
2019-01-21T04:38:32.585Z,34.73
2019-01-21T04:41:46.334Z,33.23
2019-01-21T04:44:57.329Z,35.33
2019-01-21T04:47:49.844Z,38.33
2019-01-21T04:50:57.414Z,36.07
2019-01-21T04:53:55.187Z,34.90
2019-01-21T04:57:11.833Z,37.97
2019-01-21T05:00:23.399Z,36.97
2019-01-21T05:03:37.429Z,36.23
2019-01-21T05:06:43.540Z,36.57
2019-01-21T05:10:12.279Z,38.73
2019-01-21T05:13:34.834Z,32.40
2019-01-21T05:17:00.901Z,37.97
2019-01-21T05:19:50.559Z,37.17
2019-01-21T05:22:43.904Z,39.83
2019-01-21T05:25:30.994Z,37.90
2019-01-21T05:28:40.743Z,41.37
2019-01-21T05:31:46.564Z,40.93
2019-01-21T05:34:59.533Z,36.20
2019-01-21T05:37:49.897Z,37.93
2019-01-21T05:41:01.454Z,36.43
2019-01-21T05:44:33.659Z,36.40
2019-01-21T05:47:47.010Z,35.73
2019-01-21T05:50:51.579Z,36.20
2019-01-21T05:54:20.850Z,33.27
2019-01-21T05:57:26.314Z,37.10
2019-01-21T06:00:30.460Z,34.53
2019-01-21T06:03:45.650Z,36.40
2019-01-21T06:06:35.994Z,34.23
2019-01-21T06:09:42.004Z,36.37
2019-01-21T06:12:56.244Z,39.00
2019-01-21T06:16:06.225Z,39.97
2019-01-21T06:19:34.245Z,41.87
2019-01-21T06:22:30.810Z,38.90
2019-01-21T06:25:42.015Z,42.83
2019-01-21T06:29:00.681Z,38.70
2019-01-21T06:31:50.784Z,38.23
2019-01-21T06:34:51.322Z,37.97
2019-01-21T06:37:47.634Z,39.00
2019-01-21T06:41:16.954Z,40.47
2019-01-21T06:44:26.629Z,41.27
2019-01-21T06:47:42.869Z,41.27
2019-01-21T06:50:50.369Z,42.07
2019-01-21T06:54:06.464Z,41.43
2019-01-21T06:56:53.513Z,41.20
2019-01-21T06:59:53.963Z,39.10
2019-01-21T07:03:04.045Z,37.60
2019-01-21T07:06:09.619Z,36.40
2019-01-21T07:09:02.924Z,34.33
2019-01-21T07:12:07.674Z,33.90
2019-01-21T07:15:11.243Z,32.93
2019-01-21T07:18:12.389Z,31.80
2019-01-21T07:21:27.814Z,32.67
2019-01-21T07:24:32.158Z,29.97
2019-01-21T07:27:37.689Z,30.63
2019-01-21T07:30:52.069Z,30.53
2019-01-21T07:34:02.874Z,29.80
2019-01-21T07:36:59.265Z,29.83
2019-01-21T07:40:16.201Z,27.70
2019-01-21T07:43:23.814Z,26.97
2019-01-21T07:46:24.023Z,28.47
2019-01-21T07:49:23.139Z,28.53
2019-01-21T07:52:37.060Z,25.93
2019-01-21T07:55:54.224Z,28.80
2019-01-21T07:58:56.359Z,29.17
2019-01-21T08:02:09.839Z,30.00
2019-01-21T08:05:21.936Z,29.10
2019-01-21T08:08:15.559Z,28.00
2019-01-21T08:11:08.364Z,29.17
2019-01-21T08:14:10.094Z,30.77
2019-01-21T08:17:24.139Z,29.93
2019-01-21T08:20:32.764Z,32.93
2019-01-21T08:23:39.362Z,31.40
2019-01-21T08:26:37.595Z,34.37
2019-01-21T08:29:49.269Z,34.40
2019-01-21T08:32:54.939Z,34.33
2019-01-21T08:35:56.884Z,35.90
2019-01-21T08:39:09.439Z,37.33
2019-01-21T08:42:08.139Z,33.97
2019-01-21T08:45:20.559Z,34.13
2019-01-21T08:48:58.834Z,37.87
2019-01-21T08:52:10.005Z,34.37
2019-01-21T08:54:54.804Z,34.30
2019-01-21T08:57:59.242Z,37.33
2019-01-21T09:00:53.989Z,36.23
2019-01-21T09:04:13.814Z,36.90
2019-01-21T09:07:17.582Z,39.70
2019-01-21T09:10:17.169Z,37.83
2019-01-21T09:13:30.269Z,40.73
2019-01-21T09:16:40.019Z,37.97
2019-01-21T09:19:37.214Z,38.77
2019-01-21T09:22:27.309Z,40.80
2019-01-21T09:25:38.044Z,39.57
2019-01-21T09:28:31.279Z,40.03
2019-01-21T09:31:42.064Z,52.40
2019-01-21T09:34:45.609Z,44.77
2019-01-21T09:37:44.000Z,44.50
2019-01-21T09:41:01.325Z,47.80
2019-01-21T09:44:11.119Z,45.60
2019-01-21T09:46:45.953Z,42.50
2019-01-21T09:49:14.209Z,43.90
2019-01-21T09:52:08.814Z,46.13
2019-01-21T09:54:40.525Z,44.20
2019-01-21T09:57:20.188Z,48.47
2019-01-21T09:59:57.384Z,46.00
2019-01-21T10:02:44.019Z,46.50
2019-01-21T10:05:15.929Z,45.97
2019-01-21T10:08:19.076Z,45.50
2019-01-21T10:11:14.574Z,43.10
2019-01-21T10:14:14.484Z,50.10
2019-01-21T10:17:09.679Z,43.00
2019-01-21T10:20:09.168Z,46.90
2019-01-21T10:23:24.654Z,44.67
2019-01-21T10:26:41.914Z,43.47
2019-01-21T10:29:40.830Z,44.10
2019-01-21T10:32:52.869Z,47.97
2019-01-21T10:36:02.341Z,45.33
2019-01-21T10:39:10.494Z,49.30
2019-01-21T10:42:24.010Z,43.70
2019-01-21T10:45:44.099Z,47.03
2019-01-21T10:48:49.549Z,45.87
2019-01-21T10:52:00.419Z,45.53
2019-01-21T10:55:01.790Z,44.40
2019-01-21T10:57:42.854Z,47.40
2019-01-21T11:00:51.614Z,45.50
2019-01-21T11:03:34.144Z,44.73
2019-01-21T11:06:30.974Z,43.93
2019-01-21T11:09:30.049Z,44.33
2019-01-21T11:12:20.519Z,45.77
2019-01-21T11:15:31.949Z,42.83
2019-01-21T11:18:14.479Z,43.40
2019-01-21T11:21:13.324Z,42.23
2019-01-21T11:24:25.366Z,43.80
2019-01-21T11:27:27.874Z,42.37
2019-01-21T11:30:38.891Z,43.00
2019-01-21T11:33:37.979Z,42.03
2019-01-21T11:36:50.894Z,41.80
2019-01-21T11:39:47.099Z,34.27
2019-01-21T11:42:48.879Z,40.00
2019-01-21T11:45:34.109Z,37.47
2019-01-21T11:48:30.999Z,37.90
2019-01-21T11:51:31.314Z,37.80
2019-01-21T11:54:36.954Z,37.47
2019-01-21T11:58:00.019Z,35.20
2019-01-21T12:00:49.279Z,37.47
2019-01-21T12:03:53.425Z,38.73
2019-01-21T12:06:48.623Z,36.13
2019-01-21T12:09:35.290Z,36.00
2019-01-21T12:12:32.059Z,35.97
2019-01-21T12:15:46.034Z,35.97
2019-01-21T12:19:02.774Z,34.13
2019-01-21T12:22:28.844Z,36.93
2019-01-21T12:25:07.784Z,36.03
2019-01-21T12:28:11.239Z,35.97
2019-01-21T12:31:17.870Z,35.43
2019-01-21T12:34:24.000Z,36.03
2019-01-21T12:37:13.064Z,34.70
2019-01-21T12:40:35.839Z,37.17
2019-01-21T12:43:48.903Z,34.40
2019-01-21T12:46:29.154Z,35.70
2019-01-21T12:49:46.814Z,34.43
2019-01-21T12:52:34.861Z,36.00
2019-01-21T12:55:41.894Z,35.13
2019-01-21T12:58:52.701Z,35.80
2019-01-21T13:01:54.689Z,35.23
2019-01-21T13:05:06.783Z,35.10
2019-01-21T13:08:06.718Z,35.47
2019-01-21T13:11:10.958Z,35.27
2019-01-21T13:14:17.629Z,34.13
2019-01-21T13:17:12.114Z,32.40
2019-01-21T13:20:13.544Z,33.73
2019-01-21T13:23:12.569Z,34.73
2019-01-21T13:26:05.329Z,34.50
2019-01-21T13:28:53.779Z,35.43
2019-01-21T13:31:54.697Z,35.17
2019-01-21T13:34:54.089Z,33.00
2019-01-21T13:38:06.029Z,33.10
2019-01-21T13:41:26.018Z,31.97
2019-01-21T13:44:48.774Z,34.43
2019-01-21T13:47:53.284Z,33.70
2019-01-21T13:51:04.119Z,31.87
2019-01-21T13:54:13.129Z,30.70
2019-01-21T13:57:28.809Z,31.47
2019-01-21T14:00:48.938Z,32.27
2019-01-21T14:03:42.768Z,32.70
2019-01-21T14:07:08.551Z,31.63
2019-01-21T14:10:00.444Z,31.97
2019-01-21T14:12:41.754Z,32.30
2019-01-21T14:16:08.024Z,33.60
2019-01-21T14:19:26.287Z,32.37
2019-01-21T14:22:27.864Z,30.63
2019-01-21T14:25:31.089Z,31.37
2019-01-21T14:28:33.714Z,29.90
2019-01-21T14:31:56.699Z,27.67
2019-01-21T14:34:48.144Z,32.80
2019-01-21T14:37:43.749Z,32.07
2019-01-21T14:40:53.204Z,35.23
2019-01-21T14:43:39.356Z,33.47
2019-01-21T14:46:26.199Z,32.73
2019-01-21T14:49:17.624Z,32.03
2019-01-21T14:52:20.349Z,34.10
2019-01-21T14:55:39.772Z,33.20
2019-01-21T14:58:48.176Z,30.83
2019-01-21T15:01:47.446Z,32.27
2019-01-21T15:04:42.787Z,33.03
2019-01-21T15:07:50.619Z,34.03
2019-01-21T15:11:00.644Z,33.13
2019-01-21T15:13:47.599Z,31.50
2019-01-21T15:17:10.809Z,33.03
2019-01-21T15:20:03.635Z,31.50
2019-01-21T15:23:26.649Z,31.33
2019-01-21T15:26:24.345Z,30.17
2019-01-21T15:29:44.479Z,31.47
2019-01-21T15:33:02.364Z,31.67
2019-01-21T15:35:59.413Z,33.67
2019-01-21T15:39:00.879Z,31.80
2019-01-21T15:42:05.914Z,31.63
2019-01-21T15:45:24.265Z,31.30
2019-01-21T15:48:17.833Z,32.20
2019-01-21T15:51:12.564Z,32.13
2019-01-21T15:54:10.904Z,33.27
2019-01-21T15:57:10.624Z,33.67
2019-01-21T16:00:27.774Z,33.90
2019-01-21T16:03:37.474Z,32.87
2019-01-21T16:06:52.634Z,33.60
2019-01-21T16:10:01.605Z,34.30
2019-01-21T16:12:47.544Z,35.13
2019-01-21T16:15:48.866Z,35.00
2019-01-21T16:18:29.810Z,35.53
2019-01-21T16:21:50.984Z,35.10
2019-01-21T16:25:03.764Z,34.37
2019-01-21T16:28:06.693Z,35.10
2019-01-21T16:30:51.461Z,34.23
2019-01-21T16:34:04.424Z,35.90
2019-01-21T16:37:13.074Z,35.30
2019-01-21T16:40:45.315Z,34.57
2019-01-21T16:43:16.075Z,35.63
2019-01-21T16:45:46.830Z,36.40
2019-01-21T16:48:17.587Z,36.93
2019-01-21T16:50:48.075Z,35.63
2019-01-21T16:53:18.840Z,36.63
2019-01-21T16:55:49.543Z,38.37
2019-01-21T16:58:20.236Z,38.90
2019-01-21T17:00:50.887Z,36.73
2019-01-21T17:03:21.514Z,36.03
2019-01-21T17:05:52.060Z,34.80
2019-01-21T17:08:22.635Z,37.13
2019-01-21T17:10:53.088Z,38.23
2019-01-21T17:13:23.660Z,39.10
2019-01-21T17:15:54.361Z,39.67
2019-01-21T17:18:25.111Z,36.53
2019-01-21T17:20:55.745Z,38.67
2019-01-21T17:23:26.335Z,36.93
2019-01-21T17:25:56.881Z,38.63
2019-01-21T17:28:27.419Z,37.10
2019-01-21T17:30:58.164Z,38.37
2019-01-21T17:33:29.055Z,38.67
2019-01-21T17:35:59.489Z,39.57
2019-01-21T17:38:29.969Z,41.40
2019-01-21T17:41:00.645Z,40.13
2019-01-21T17:43:31.154Z,41.50
2019-01-21T17:46:01.810Z,42.80
2019-01-21T17:48:32.454Z,42.97
2019-01-21T17:51:03.102Z,40.67
2019-01-21T17:53:33.790Z,44.50
2019-01-21T17:56:04.295Z,46.53
2019-01-21T17:58:34.990Z,54.50
2019-01-21T18:01:05.710Z,59.83
2019-01-21T18:03:36.410Z,59.63
2019-01-21T18:06:07.096Z,54.40
2019-01-21T18:08:37.670Z,48.27
2019-01-21T18:11:08.588Z,43.20
2019-01-21T18:13:39.175Z,51.00
2019-01-21T18:16:09.767Z,51.47
2019-01-21T18:18:40.504Z,40.07
2019-01-21T18:21:11.184Z,36.30
2019-01-21T18:23:41.785Z,35.87
2019-01-21T18:26:12.500Z,40.67
2019-01-21T18:28:43.114Z,40.67
2019-01-21T18:31:13.760Z,44.93
2019-01-21T18:33:44.445Z,45.10
2019-01-21T18:36:15.535Z,46.30
2019-01-21T18:38:46.249Z,43.53
2019-01-21T18:41:16.995Z,44.47
2019-01-21T18:43:47.655Z,45.70
2019-01-21T18:46:18.160Z,47.70
2019-01-21T18:48:49.095Z,47.40
2019-01-21T18:51:19.670Z,46.20
2019-01-21T18:53:50.301Z,50.43
2019-01-21T18:56:21.174Z,48.23
2019-01-21T18:58:51.984Z,51.37
2019-01-21T19:01:22.759Z,46.67
2019-01-21T19:03:53.600Z,49.47
2019-01-21T19:06:24.440Z,51.60
2019-01-21T19:08:55.200Z,48.40
2019-01-21T19:11:26.204Z,44.73
2019-01-21T19:13:56.854Z,41.30
2019-01-21T19:16:27.629Z,46.93
2019-01-21T19:18:58.461Z,53.60
2019-01-21T19:21:29.358Z,56.77
2019-01-21T19:24:00.165Z,72.77
2019-01-21T19:26:30.914Z,72.43
2019-01-21T19:29:01.618Z,55.10
2019-01-21T19:31:32.348Z,53.23
2019-01-21T19:34:03.131Z,48.63
2019-01-21T19:36:33.848Z,50.33
2019-01-21T19:39:06.400Z,48.50
2019-01-21T19:41:37.154Z,68.03
2019-01-21T19:44:07.999Z,71.87
2019-01-21T19:46:44.115Z,73.47
2019-01-21T19:49:11.715Z,54.23
2019-01-21T19:51:42.486Z,49.80
2019-01-21T19:54:13.525Z,50.97
2019-01-21T19:56:46.689Z,48.10
2019-01-21T19:59:17.710Z,46.93
2019-01-21T20:01:49.801Z,46.80
2019-01-21T20:04:20.725Z,46.83
2019-01-21T20:06:51.860Z,46.67
2019-01-21T20:09:22.960Z,44.37
2019-01-21T20:11:53.840Z,40.27
2019-01-21T20:14:24.733Z,39.90
2019-01-21T20:16:56.482Z,33.93
2019-01-21T20:19:27.449Z,31.80
2019-01-21T20:21:58.493Z,34.77
2019-01-21T20:24:29.842Z,36.70
2019-01-21T20:27:00.594Z,35.83
2019-01-21T20:29:31.364Z,33.33
2019-01-21T20:32:02.395Z,30.60
2019-01-21T20:34:33.599Z,27.17
2019-01-21T20:37:04.394Z,26.60
2019-01-21T20:39:35.421Z,23.07
2019-01-21T20:42:06.615Z,30.70
2019-01-21T20:44:37.449Z,31.43
2019-01-21T20:47:08.546Z,32.73
2019-01-21T20:49:40.065Z,33.50
2019-01-21T20:52:14.187Z,38.40
2019-01-21T20:54:45.680Z,43.60
2019-01-21T20:57:16.640Z,43.33
2019-01-21T20:59:50.409Z,44.70
2019-01-21T21:02:21.060Z,47.47
2019-01-21T21:05:02.686Z,46.00
2019-01-21T21:07:41.805Z,42.17
2019-01-21T21:10:14.334Z,42.10
2019-01-21T21:12:48.705Z,47.23
2019-01-21T21:15:22.355Z,45.30
2019-01-21T21:17:58.961Z,45.13
2019-01-21T21:20:35.639Z,46.07
2019-01-21T21:23:15.044Z,46.30
2019-01-21T21:25:57.207Z,48.73
2019-01-21T21:28:31.146Z,45.43
2019-01-21T21:31:02.924Z,46.57
2019-01-21T21:33:35.075Z,49.63
2019-01-21T21:36:10.339Z,54.00
2019-01-21T21:38:45.569Z,54.23
2019-01-21T21:41:23.984Z,58.70
2019-01-21T21:43:55.864Z,60.17
2019-01-21T21:46:35.260Z,61.40
2019-01-21T21:49:08.695Z,59.90
2019-01-21T21:51:40.704Z,55.37
2019-01-21T21:54:14.084Z,57.90
2019-01-21T21:56:50.719Z,55.80
2019-01-21T21:59:23.240Z,52.97
2019-01-21T22:01:53.914Z,51.63
2019-01-21T22:04:30.480Z,51.40
2019-01-21T22:07:03.974Z,48.50
2019-01-21T22:09:34.609Z,48.30
2019-01-21T22:12:06.995Z,45.53
2019-01-21T22:14:40.764Z,48.60
2019-01-21T22:17:15.180Z,49.70
2019-01-21T22:19:47.421Z,44.33
2019-01-21T22:22:34.945Z,42.47
2019-01-21T22:25:11.128Z,40.03
2019-01-21T22:27:41.880Z,40.57
2019-01-21T22:30:15.734Z,42.77
2019-01-21T22:32:46.265Z,47.57
2019-01-21T22:35:16.999Z,47.87
2019-01-21T22:37:48.314Z,47.40
2019-01-21T22:40:20.730Z,48.47
2019-01-21T22:42:51.369Z,46.37
2019-01-21T22:45:22.699Z,43.00
2019-01-21T22:47:53.274Z,29.70
2019-01-21T22:50:24.019Z,38.17
2019-01-21T22:52:54.659Z,44.83
2019-01-21T22:55:25.284Z,45.87
2019-01-21T22:57:56.025Z,41.93
2019-01-21T23:01:09.569Z,44.43
2019-01-21T23:03:40.224Z,46.60
2019-01-21T23:06:11.014Z,46.17
2019-01-21T23:08:42.034Z,44.97
2019-01-21T23:11:12.639Z,47.70
2019-01-21T23:13:43.205Z,46.67
2019-01-21T23:16:13.900Z,48.07
2019-01-21T23:18:44.559Z,53.20
2019-01-21T23:21:15.159Z,50.20
2019-01-21T23:23:45.819Z,46.77
2019-01-21T23:26:16.454Z,44.57
2019-01-21T23:28:49.539Z,42.13
2019-01-21T23:31:20.189Z,46.33
2019-01-21T23:33:51.219Z,44.37
2019-01-21T23:36:21.800Z,46.33
2019-01-21T23:38:52.509Z,52.43
2019-01-21T23:41:23.134Z,49.17
2019-01-21T23:43:53.704Z,52.50
2019-01-21T23:46:24.300Z,53.73
2019-01-21T23:48:54.797Z,57.87
2019-01-21T23:51:25.464Z,57.90
2019-01-21T23:53:56.173Z,57.50
2019-01-21T23:56:26.818Z,60.33
2019-01-21T23:58:57.509Z,60.77
